Startpagina
METAR-TAF:

METAR-TAF

Vliegvelden :

Internationale luchthaven Koning Abdoel Aziz

Djedda, Saoedi-Arabië

breedte: 21-42N, lengte: 039-11E, hoogte: 15 m

Actueel weer

Dit bericht is 46 minuten geleden gemaakt, om 23:00 UTC
Wind 10 kt uit het noordnoordoosten
Temperatuur 20°C
Vochtigheid 49%
Druk 1016 hPa
Zicht 10 km of meer
geen wolken onder 1500 m en geen cumulonimbus

METAR: OEJN 192300Z 02010KT CAVOK 20/09 Q1016 NOSIG

Tijdstip: 02:46 (23:46 UTC)

Verwachting

Dit bericht is 6 uur en het 46 minuten geleden gemaakt, om 17:00 UTC
Verwachting geldig van 19 om 18 UTC tot 20 om 24 UTC
Wind 10 kt uit het noorden met uitschieters tot 20 kt
Zicht: 7000 m
Weinig wolken op 4000 ft

TAF: OEJN 191700Z 1918/2024 36010G20KT 7000 FEW040

Waarnemingen en weersverwachtingen van meer dan 4000 vliegvelden (METAR en TAF).

De beschikbare stations zijn de gele en rode punten op de kaart.

Ga met uw muis naar het station om de naam te zien.

Klik dan om waarnemingen en weersverwachtingen te zien.

kaart wijzigen: klik op de groene knoppen met een zwart kruis om in te zoomen, op de groene knop met een streepje om uit te zoomen of op de groene pijlen voor aangrenzende kaarten.


METAR-TAF: